Old Brazoria, Texas
Current Conditions -  °F | °C
As of 12:17 AM on Tuesday 21 Oct 2014 (Local Time) from KLBX Reporting Station
Haze Haze  
Wind Chill: 62°   Ceiling: Unl
Heat Index: 62°   Visibility: 5mi
Dew Point: 62°   Wind: 6mph
Humidity: 100%   Direction: 20°NNE
Pressure: 30"   Gusts: NA
Location:  28.9272°N, 95.5834°W
Report Text: KLBX 210517Z AUTO 02005KT 5SM BR CLR 17/17 A3000 RMK AO2 T01670167 $
Loading
Personal Weather Stations






























Interactive Weather Map
Tropical Storm Tracking
New forecast layout! Learn more

10-Day Weather Forecast

Advertisements
Track Severe Weather on mobile